Time;durP1;ratioP1;P1;durP2;ratioP2;P2;SDS_P1;SDS_P2;PMS_P1;PMS_P2;Temp;Humidity;BMP_temperature;BMP_pressure;BME280_temperature;BME280_humidity;BME280_pressure;Samples;Min_cycle;Max_cycle;Signal;HPM_P1;HPM_P2
2021/09/28 00:00:42;;;;;;;15.27;11.65;;;;;;;17.61;78.70;96725.22;5106337;28;20426;-74
2021/09/28 00:03:09;;;;;;;18.08;11.85;;;;;;;17.57;77.45;96729.81;5106913;28;20048;-74
2021/09/28 00:05:36;;;;;;;17.83;12.82;;;;;;;17.56;77.61;96736.47;5106732;28;20067;-74
2021/09/28 00:08:03;;;;;;;16.80;12.45;;;;;;;17.55;77.56;96743.16;5106585;28;20043;-73
2021/09/28 00:10:30;;;;;;;16.88;11.98;;;;;;;17.48;77.70;96738.25;5107143;28;20052;-74
2021/09/28 00:12:56;;;;;;;18.27;12.85;;;;;;;17.45;77.93;96745.25;5106540;28;20075;-74
2021/09/28 00:15:23;;;;;;;16.08;11.75;;;;;;;17.43;78.17;96742.03;5106904;28;20055;-74
2021/09/28 00:17:49;;;;;;;16.15;11.57;;;;;;;17.42;78.56;96739.66;5105858;28;20054;-74
2021/09/28 00:20:17;;;;;;;17.20;12.05;;;;;;;17.40;79.04;96748.28;5106529;28;20051;-74
2021/09/28 00:22:45;;;;;;;18.20;12.57;;;;;;;17.39;79.67;96746.69;5106894;28;20418;-75
2021/09/28 00:25:11;;;;;;;20.63;13.18;;;;;;;17.36;79.75;96741.88;5110400;28;20525;-74
2021/09/28 00:27:38;;;;;;;14.40;11.02;;;;;;;17.36;79.83;96747.38;5110259;28;20043;-74
2021/09/28 00:30:06;;;;;;;17.70;12.48;;;;;;;17.39;79.69;96740.38;5110420;28;20055;-74
2021/09/28 00:32:33;;;;;;;16.33;11.98;;;;;;;17.40;79.85;96748.28;5110660;28;20088;-74
2021/09/28 00:34:59;;;;;;;17.50;12.23;;;;;;;17.39;79.82;96746.69;5110340;28;20048;-74
2021/09/28 00:37:26;;;;;;;16.70;11.80;;;;;;;17.34;79.90;96749.69;5110169;28;20043;-74
2021/09/28 00:39:54;;;;;;;17.60;11.80;;;;;;;17.29;79.70;96736.19;5110022;28;20055;-74
2021/09/28 00:42:20;;;;;;;20.65;12.07;;;;;;;17.24;79.61;96744.69;5110454;28;20058;-74
2021/09/28 00:44:47;;;;;;;19.05;11.65;;;;;;;17.20;79.78;96741.84;5110154;28;20071;-74
2021/09/28 00:47:15;;;;;;;16.38;11.98;;;;;;;17.13;79.79;96746.34;5110393;28;20059;-74
2021/09/28 00:49:43;;;;;;;18.70;12.15;;;;;;;17.11;79.57;96746.69;5109933;28;20387;-73
2021/09/28 00:52:11;;;;;;;18.55;11.70;;;;;;;17.07;79.67;96744.97;5109767;28;20052;-73
2021/09/28 00:54:38;;;;;;;17.52;11.90;;;;;;;17.03;79.87;96744.09;5110113;28;20413;-74
2021/09/28 00:57:07;;;;;;;18.50;12.55;;;;;;;16.96;80.08;96750.19;5109625;28;20044;-74
2021/09/28 00:59:35;;;;;;;16.23;11.95;;;;;;;16.90;80.33;96752.38;5110128;28;20502;-74
2021/09/28 01:02:03;;;;;;;15.82;12.27;;;;;;;16.92;80.26;96749.31;5109724;28;20415;-74
2021/09/28 01:04:29;;;;;;;20.15;12.18;;;;;;;16.92;79.77;96752.06;5110401;28;20484;-74
2021/09/28 01:06:58;;;;;;;18.60;13.15;;;;;;;16.88;79.70;96759.41;5109389;28;20051;-74
2021/09/28 01:09:25;;;;;;;18.63;12.65;;;;;;;16.83;79.70;96760.44;5109900;28;20051;-73
2021/09/28 01:11:52;;;;;;;18.73;12.55;;;;;;;16.80;79.61;96757.56;5109304;28;20506;-75
2021/09/28 01:14:20;;;;;;;17.80;12.63;;;;;;;16.74;79.81;96762.50;5109727;28;20047;-74
2021/09/28 01:16:47;;;;;;;16.90;11.85;;;;;;;16.67;79.87;96759.53;5109201;28;20056;-74
2021/09/28 01:19:13;;;;;;;18.17;12.48;;;;;;;16.60;80.11;96759.31;5109483;28;20090;-74
2021/09/28 01:21:42;;;;;;;19.10;13.07;;;;;;;16.53;80.57;96759.91;5109423;28;20052;-73
2021/09/28 01:24:09;;;;;;;17.48;12.25;;;;;;;16.50;80.46;96760.59;5109075;28;20049;-74
2021/09/28 01:26:37;;;;;;;16.40;12.40;;;;;;;16.48;80.79;96759.34;5109983;28;20449;-75
2021/09/28 01:29:07;;;;;;;16.88;12.65;;;;;;;16.49;80.83;96753.47;5108460;28;20048;-73
2021/09/28 01:31:34;;;;;;;18.20;12.85;;;;;;;16.51;80.35;96762.22;5110150;28;20148;-73
2021/09/28 01:34:01;;;;;;;21.40;13.57;;;;;;;16.53;80.08;96764.59;5108520;28;20051;-74
2021/09/28 01:36:27;;;;;;;19.35;13.10;;;;;;;16.53;80.09;96770.09;5109565;28;20043;-74
2021/09/28 01:38:55;;;;;;;18.17;12.50;;;;;;;16.47;80.00;96772.28;5109169;28;20048;-74
2021/09/28 01:41:21;;;;;;;17.55;12.73;;;;;;;16.48;80.13;96762.88;5108750;28;20052;-74
2021/09/28 01:43:48;;;;;;;17.70;11.90;;;;;;;16.44;80.18;96765.53;5109238;28;20047;-73
2021/09/28 01:46:14;;;;;;;19.98;12.40;;;;;;;16.43;80.13;96769.41;5108267;28;20047;-74
2021/09/28 01:48:47;;;;;;;18.60;12.85;;;;;;;16.44;80.25;96773.78;5105648;28;20055;-73
2021/09/28 01:51:13;;;;;;;17.10;12.30;;;;;;;16.45;80.52;96774.59;5108147;28;20055;-74
2021/09/28 01:53:39;;;;;;;16.95;11.68;;;;;;;16.49;80.16;96774.69;5109823;28;20053;-73
2021/09/28 01:56:07;;;;;;;16.40;11.45;;;;;;;16.50;80.19;96768.06;5109175;28;20048;-74
2021/09/28 01:58:35;;;;;;;18.85;12.70;;;;;;;16.47;80.11;96771.50;5109002;28;20059;-73
2021/09/28 02:01:01;;;;;;;18.38;13.10;;;;;;;16.47;80.60;96772.28;5108665;28;20080;-74
2021/09/28 02:03:28;;;;;;;18.83;12.30;;;;;;;16.46;81.08;96769.88;5108327;28;20046;-73
2021/09/28 02:05:54;;;;;;;17.90;12.35;;;;;;;16.46;81.18;96756.94;5108785;28;20040;-74
2021/09/28 02:08:21;;;;;;;18.88;12.18;;;;;;;16.49;81.38;96763.69;5108046;28;20052;-73
2021/09/28 02:10:47;;;;;;;17.77;12.65;;;;;;;16.50;81.43;96754.31;5108907;28;20426;-75
2021/09/28 02:13:16;;;;;;;17.38;12.20;;;;;;;16.54;81.37;96769.75;5107806;28;20051;-73
2021/09/28 02:15:42;;;;;;;20.10;12.85;;;;;;;16.57;81.31;96762.75;5109187;28;20051;-74
2021/09/28 02:18:09;;;;;;;18.10;13.18;;;;;;;16.60;80.71;96764.81;5107705;28;20051;-73
2021/09/28 02:20:35;;;;;;;20.63;12.35;;;;;;;16.58;80.66;96756.91;5109024;28;20044;-72
2021/09/28 02:23:02;;;;;;;19.27;12.60;;;;;;;16.58;80.81;96758.88;5107357;28;20044;-73
2021/09/28 02:25:29;;;;;;;16.52;12.38;;;;;;;16.59;80.83;96760.47;5108651;28;20126;-76
2021/09/28 02:27:55;;;;;;;15.23;11.57;;;;;;;16.56;80.75;96758.41;5108081;28;20426;-73
2021/09/28 02:30:23;;;;;;;21.75;11.88;;;;;;;16.55;80.90;96762.28;5107724;28;20064;-73
2021/09/28 02:32:49;;;;;;;14.90;11.60;;;;;;;16.55;81.12;96765.03;5108247;28;20052;-73
2021/09/28 02:35:16;;;;;;;21.17;12.60;;;;;;;16.53;81.11;96764.59;5107605;28;20050;-74
2021/09/28 02:37:42;;;;;;;23.40;12.73;;;;;;;16.52;81.31;96768.50;5108815;28;20067;-75
2021/09/28 02:40:10;;;;;;;17.17;11.80;;;;;;;16.52;81.28;96763.00;5107048;28;20058;-73
2021/09/28 02:42:37;;;;;;;18.38;12.50;;;;;;;16.51;81.22;96767.69;5108720;28;20047;-73
2021/09/28 02:45:05;;;;;;;19.55;12.85;;;;;;;16.51;81.25;96769.66;5106341;28;20051;-73
2021/09/28 02:47:32;;;;;;;16.17;11.80;;;;;;;16.48;81.05;96762.88;5108207;28;20051;-73
2021/09/28 02:49:59;;;;;;;18.65;12.13;;;;;;;16.43;81.09;96766.66;5107599;28;20043;-75
2021/09/28 02:52:25;;;;;;;18.38;12.60;;;;;;;16.42;81.10;96765.06;5107502;28;20039;-74
2021/09/28 02:54:52;;;;;;;18.27;12.45;;;;;;;16.44;80.86;96768.28;5107969;28;20050;-73
2021/09/28 02:57:18;;;;;;;21.58;12.93;;;;;;;16.44;80.96;96778.47;5107065;28;20040;-73
2021/09/28 02:59:45;;;;;;;20.10;13.00;;;;;;;16.44;81.16;96772.97;5108338;28;20052;-75
2021/09/28 03:02:12;;;;;;;20.08;13.05;;;;;;;16.42;81.40;96775.28;5106718;28;20391;-73
2021/09/28 03:04:39;;;;;;;20.48;13.35;;;;;;;16.42;81.48;96776.06;5108389;28;20078;-73
2021/09/28 03:07:06;;;;;;;18.15;12.02;;;;;;;16.39;81.47;96776.78;5107002;28;20070;-73
2021/09/28 03:09:33;;;;;;;17.92;12.13;;;;;;;16.39;81.45;96776.78;5107733;28;20048;-74
2021/09/28 03:11:59;;;;;;;16.20;11.93;;;;;;;16.34;81.48;96773.44;5107645;28;20059;-73
2021/09/28 03:14:27;;;;;;;18.25;12.93;;;;;;;16.31;81.35;96774.94;5107455;28;20058;-74
2021/09/28 03:16:53;;;;;;;16.70;12.20;;;;;;;16.30;81.32;96783.53;5107651;28;20073;-74
2021/09/28 03:19:21;;;;;;;18.33;12.70;;;;;;;16.26;81.30;96783.41;5106654;28;20047;-73
2021/09/28 03:21:49;;;;;;;18.98;12.32;;;;;;;16.24;81.35;96782.97;5107663;28;20055;-74
2021/09/28 03:24:15;;;;;;;20.65;12.60;;;;;;;16.24;81.63;96793.16;5106329;28;20053;-74
2021/09/28 03:26:42;;;;;;;19.83;12.85;;;;;;;16.23;81.92;96795.06;5107973;28;20066;-73
2021/09/28 03:29:08;;;;;;;19.45;12.70;;;;;;;16.23;81.59;96799.78;5106433;28;20047;-74
2021/09/28 03:31:35;;;;;;;19.65;12.65;;;;;;;16.23;81.73;96795.06;5107778;28;20044;-73
2021/09/28 03:34:01;;;;;;;19.13;13.25;;;;;;;16.28;81.66;96785.81;5106200;28;20502;-72
2021/09/28 03:36:28;;;;;;;19.85;12.68;;;;;;;16.30;81.78;96791.78;5107493;28;20048;-74
2021/09/28 03:38:56;;;;;;;18.00;12.25;;;;;;;16.29;81.84;96785.47;5107124;28;20047;-74
2021/09/28 03:41:23;;;;;;;19.38;12.73;;;;;;;16.30;81.38;96778.84;5106679;28;20489;-74
2021/09/28 03:43:49;;;;;;;20.17;12.48;;;;;;;16.26;81.45;96780.66;5107228;28;20052;-73
2021/09/28 03:46:16;;;;;;;19.20;11.85;;;;;;;16.29;81.12;96785.47;5106594;28;20059;-74
2021/09/28 03:48:42;;;;;;;20.77;12.27;;;;;;;16.25;80.92;96787.31;5107530;28;20051;-74
2021/09/28 03:51:09;;;;;;;16.90;11.70;;;;;;;16.24;81.22;96791.22;5105988;28;20046;-74
2021/09/28 03:53:35;;;;;;;19.48;12.85;;;;;;;16.23;81.19;96788.78;5108075;28;20051;-74
2021/09/28 03:56:03;;;;;;;18.98;12.45;;;;;;;16.20;81.54;96790.28;5106295;28;20048;-72
2021/09/28 03:58:30;;;;;;;20.98;12.70;;;;;;;16.18;81.23;96798.06;5111053;28;20055;-74
2021/09/28 04:00:56;;;;;;;18.27;12.48;;;;;;;16.17;81.26;96801.94;5110969;28;20047;-74
2021/09/28 04:03:23;;;;;;;18.58;12.70;;;;;;;16.14;81.40;96802.66;5110784;28;20059;-74
2021/09/28 04:05:49;;;;;;;19.35;12.60;;;;;;;16.15;80.69;96804.25;5111141;28;20051;-74
2021/09/28 04:08:16;;;;;;;20.00;12.55;;;;;;;16.13;80.85;96803.78;5110557;28;20048;-73
2021/09/28 04:10:42;;;;;;;18.63;12.70;;;;;;;16.17;80.29;96815.69;5111172;28;20529;-74
2021/09/28 04:13:11;;;;;;;17.00;12.60;;;;;;;16.18;80.41;96820.03;5109998;28;20050;-74
2021/09/28 04:15:41;;;;;;;20.10;11.95;;;;;;;16.15;80.43;96820.75;5111410;28;20159;-74
2021/09/28 04:18:08;;;;;;;17.00;11.77;;;;;;;16.10;81.07;96823.72;5109445;28;20058;-73
2021/09/28 04:20:37;;;;;;;20.35;12.77;;;;;;;16.13;80.57;96831.25;5111348;28;20051;-75
2021/09/28 04:23:04;;;;;;;17.95;12.57;;;;;;;16.08;80.54;96826.00;5109650;28;20040;-73
2021/09/28 04:25:30;;;;;;;16.92;12.65;;;;;;;16.03;80.61;96824.28;5111104;28;20047;-74
2021/09/28 04:27:57;;;;;;;18.15;12.52;;;;;;;16.02;81.16;96827.34;5110893;28;20074;-73
2021/09/28 04:30:25;;;;;;;17.40;11.70;;;;;;;16.05;80.98;96829.44;5110172;28;20058;-74
2021/09/28 04:32:52;;;;;;;17.13;11.98;;;;;;;16.04;80.69;96831.38;5110957;28;20051;-74
2021/09/28 04:35:19;;;;;;;21.02;13.38;;;;;;;16.02;80.91;96835.59;5109884;28;20047;-74
2021/09/28 04:37:46;;;;;;;17.92;12.55;;;;;;;15.96;80.92;96834.22;5110720;28;20055;-73
2021/09/28 04:40:14;;;;;;;22.77;13.32;;;;;;;15.98;81.18;96835.50;5109383;28;20044;-74
2021/09/28 04:42:40;;;;;;;21.88;13.27;;;;;;;15.92;81.33;96839.56;5111114;28;20056;-74
2021/09/28 04:45:08;;;;;;;19.90;13.77;;;;;;;15.85;81.83;96844.84;5109421;28;20391;-73
2021/09/28 04:47:35;;;;;;;24.13;13.98;;;;;;;15.83;82.39;96841.63;5110656;28;20059;-73
2021/09/28 04:50:03;;;;;;;20.92;14.35;;;;;;;15.84;82.56;96849.53;5109523;28;20052;-72
2021/09/28 04:52:29;;;;;;;23.80;14.45;;;;;;;15.83;82.92;96847.94;5110253;28;20040;-73
2021/09/28 04:54:56;;;;;;;22.92;14.35;;;;;;;15.86;82.96;96854.66;5110513;28;20482;-74
2021/09/28 04:57:22;;;;;;;21.83;14.90;;;;;;;15.94;82.66;96861.22;5109389;28;20051;-73
2021/09/28 04:59:49;;;;;;;21.67;14.55;;;;;;;15.99;82.75;96855.50;5110456;28;20054;-74
2021/09/28 05:02:15;;;;;;;21.00;13.60;;;;;;;15.98;82.53;96859.41;5108924;28;20058;-74
2021/09/28 05:04:43;;;;;;;20.58;13.23;;;;;;;15.96;82.36;96862.47;5110404;28;20056;-73
2021/09/28 05:07:10;;;;;;;20.63;14.10;;;;;;;15.95;82.41;96860.06;5109799;28;20075;-73
2021/09/28 05:09:37;;;;;;;20.40;14.43;;;;;;;15.96;82.59;96854.22;5109677;28;20067;-74
2021/09/28 05:12:05;;;;;;;20.90;14.20;;;;;;;16.03;82.25;96861.94;5109543;28;20391;-74
2021/09/28 05:14:31;;;;;;;23.63;14.00;;;;;;;16.08;82.06;96868.00;5110104;28;20040;-73
2021/09/28 05:16:58;;;;;;;21.02;14.20;;;;;;;16.08;81.61;96867.22;5109445;28;20506;-74
2021/09/28 05:19:24;;;;;;;21.52;13.73;;;;;;;16.12;81.25;96865.38;5108782;28;20040;-73
2021/09/28 05:21:53;;;;;;;21.48;14.10;;;;;;;16.12;81.49;96866.16;5109676;28;20075;-73
2021/09/28 05:24:19;;;;;;;20.48;13.27;;;;;;;16.14;81.84;96863.09;5108850;28;20044;-73
2021/09/28 05:26:47;;;;;;;20.85;13.02;;;;;;;16.19;81.62;96862.88;5110266;28;20054;-75
2021/09/28 05:29:13;;;;;;;21.92;14.35;;;;;;;16.22;81.29;96864.13;5108651;28;20107;-74
2021/09/28 05:31:40;;;;;;;22.67;13.32;;;;;;;16.26;81.43;96874.09;5110505;28;20126;-73
2021/09/28 05:34:06;;;;;;;24.63;13.93;;;;;;;16.30;81.04;96877.75;5108524;28;20566;-74
2021/09/28 05:36:33;;;;;;;21.25;13.68;;;;;;;16.29;80.77;96872.63;5109975;28;20414;-73
2021/09/28 05:39:01;;;;;;;19.83;13.57;;;;;;;16.31;80.94;96876.63;5109497;28;20047;-73
2021/09/28 05:41:27;;;;;;;19.05;12.93;;;;;;;16.32;81.00;96878.22;5108943;28;20051;-73
2021/09/28 05:43:54;;;;;;;22.83;12.90;;;;;;;16.27;81.37;96875.69;5109835;28;20052;-74
2021/09/28 05:46:20;;;;;;;18.92;13.40;;;;;;;16.30;81.37;96885.22;5108716;28;20482;-74
2021/09/28 05:48:47;;;;;;;22.50;13.40;;;;;;;16.21;81.22;96885.31;5109437;28;20071;-73
2021/09/28 05:51:17;;;;;;;23.10;13.98;;;;;;;16.13;81.70;96884.28;5108146;28;20612;-73
2021/09/28 05:53:44;;;;;;;22.02;14.82;;;;;;;16.15;82.17;96889.41;5109952;28;20051;-74
2021/09/28 05:56:12;;;;;;;22.48;13.77;;;;;;;16.17;82.31;96895.38;5108225;28;20518;-74
2021/09/28 05:58:39;;;;;;;19.67;13.90;;;;;;;16.09;81.81;96890.78;5109424;28;20051;-73
2021/09/28 06:01:05;;;;;;;24.15;13.45;;;;;;;16.04;82.33;96896.50;5108237;28;20403;-73
2021/09/28 06:03:31;;;;;;;19.10;13.35;;;;;;;15.99;82.41;96899.47;5109212;28;20597;-74
2021/09/28 06:05:58;;;;;;;20.95;12.88;;;;;;;16.02;82.68;96905.06;5108776;28;20047;-73
2021/09/28 06:08:25;;;;;;;22.67;13.88;;;;;;;16.00;82.89;96901.88;5108509;28;20051;-73
2021/09/28 06:10:51;;;;;;;19.88;13.23;;;;;;;16.01;83.02;96908.16;5109136;28;20051;-74
2021/09/28 06:13:19;;;;;;;21.15;13.98;;;;;;;16.08;82.57;96908.41;5108074;28;20495;-73
2021/09/28 06:15:45;;;;;;;23.83;13.05;;;;;;;16.10;82.78;96911.63;5109106;28;20067;-74
2021/09/28 06:18:12;;;;;;;20.58;13.25;;;;;;;16.11;82.97;96910.47;5107916;28;20051;-74
2021/09/28 06:20:38;;;;;;;19.50;12.40;;;;;;;16.01;82.83;96905.41;5108937;28;20557;-73
2021/09/28 06:23:05;;;;;;;20.65;12.43;;;;;;;16.00;83.13;96906.56;5107636;28;20059;-73
2021/09/28 06:25:31;;;;;;;20.15;13.02;;;;;;;15.99;83.31;96910.44;5109419;28;20410;-73
2021/09/28 06:27:58;;;;;;;21.58;12.65;;;;;;;16.00;83.75;96917.53;5108211;28;20047;-74
2021/09/28 06:30:26;;;;;;;17.40;12.50;;;;;;;16.06;83.54;96922.47;5108191;28;20051;-73
2021/09/28 06:32:52;;;;;;;23.45;12.80;;;;;;;16.01;83.17;96924.63;5108582;28;20405;-73
2021/09/28 06:35:19;;;;;;;18.38;11.65;;;;;;;16.06;83.50;96924.41;5107592;28;20047;-73
2021/09/28 06:37:45;;;;;;;20.00;11.88;;;;;;;16.13;83.15;96927.41;5108969;28;20047;-74
2021/09/28 06:40:12;;;;;;;19.63;12.20;;;;;;;16.07;82.84;96928.78;5107357;28;20039;-73
2021/09/28 06:42:39;;;;;;;21.35;12.27;;;;;;;16.09;83.07;96930.06;5108768;28;20055;-73
2021/09/28 06:45:07;;;;;;;17.98;11.52;;;;;;;16.12;82.64;96931.31;5107413;28;20048;-73
2021/09/28 06:47:35;;;;;;;16.38;11.32;;;;;;;16.15;82.19;96933.38;5108489;28;20051;-73
2021/09/28 06:50:01;;;;;;;20.23;11.27;;;;;;;16.21;82.38;96937.50;5107967;28;20047;-73
2021/09/28 06:52:28;;;;;;;17.38;10.32;;;;;;;16.24;82.44;96934.09;5108274;28;20055;-73
2021/09/28 06:54:54;;;;;;;16.02;10.63;;;;;;;16.31;82.08;96939.03;5107458;28;20054;-73
2021/09/28 06:57:21;;;;;;;12.25;9.20;;;;;;;16.30;81.56;96935.47;5108053;28;20051;-74
2021/09/28 06:59:47;;;;;;;17.80;9.45;;;;;;;16.23;81.57;96932.47;5108436;28;20051;-72
2021/09/28 07:02:13;;;;;;;12.75;8.05;;;;;;;16.20;82.20;96941.41;5106937;28;20445;-74
2021/09/28 07:04:41;;;;;;;12.50;7.97;;;;;;;16.13;82.29;96943.88;5108410;28;20059;-73
2021/09/28 07:07:08;;;;;;;12.25;7.90;;;;;;;16.06;83.01;96949.16;5106789;28;20054;-73
2021/09/28 07:09:35;;;;;;;13.57;7.95;;;;;;;15.96;83.23;96944.88;5107977;28;20575;-73
2021/09/28 07:12:01;;;;;;;15.93;8.40;;;;;;;15.82;83.57;96950.69;5106853;28;20044;-70
2021/09/28 07:14:28;;;;;;;13.05;8.55;;;;;;;15.75;84.36;96949.59;5107636;28;20509;-73
2021/09/28 07:16:54;;;;;;;18.08;8.60;;;;;;;15.74;84.74;96953.50;5107443;28;20044;-74
2021/09/28 07:19:21;;;;;;;13.52;9.15;;;;;;;15.73;84.70;96951.91;5106896;28;20051;-73
2021/09/28 07:21:49;;;;;;;12.88;8.18;;;;;;;15.78;84.43;96948.94;5107271;28;20521;-73
2021/09/28 07:24:15;;;;;;;14.77;8.50;;;;;;;15.87;84.27;96958.72;5106712;28;20047;-73
2021/09/28 07:26:42;;;;;;;12.25;8.27;;;;;;;15.90;83.71;96951.72;5107825;28;20047;-73
2021/09/28 07:29:09;;;;;;;12.65;8.63;;;;;;;15.89;83.80;96961.91;5106378;28;20051;-73
2021/09/28 07:31:35;;;;;;;12.27;7.35;;;;;;;15.89;83.13;96961.91;5107756;28;20058;-73
2021/09/28 07:34:02;;;;;;;9.98;7.10;;;;;;;15.89;83.23;96967.41;5106779;28;20054;-71
2021/09/28 07:36:29;;;;;;;15.70;6.40;;;;;;;15.87;82.92;96964.22;5107746;28;20047;-73
2021/09/28 07:38:56;;;;;;;8.93;5.38;;;;;;;15.78;82.89;96963.47;5106573;28;20043;-73
2021/09/28 07:41:23;;;;;;;7.05;5.15;;;;;;;15.67;82.68;96959.53;5106530;28;20075;-74
2021/09/28 07:43:50;;;;;;;3.15;1.63;;;;;;;15.48;81.07;96970.16;5106825;28;20052;-73
2021/09/28 07:46:16;;;;;;;3.35;1.20;;;;;;;15.33;80.81;96972.34;5105985;28;20055;-74
2021/09/28 07:48:45;;;;;;;1.10;0.90;;;;;;;15.30;80.19;96974.97;5106802;28;20055;-73
2021/09/28 07:51:11;;;;;;;3.45;1.10;;;;;;;15.03;81.31;96985.28;5105663;28;20056;-73
2021/09/28 07:53:38;;;;;;;1.60;0.98;;;;;;;14.92;81.91;96981.31;5107078;28;20043;-73
2021/09/28 07:56:06;;;;;;;1.42;0.90;;;;;;;14.88;82.66;96989.41;5105640;28;20044;-73
2021/09/28 07:58:32;;;;;;;1.55;0.98;;;;;;;14.84;82.65;96988.44;5107053;28;20521;-74
2021/09/28 08:00:59;;;;;;;1.00;0.77;;;;;;;14.76;83.29;96986.53;5106077;28;20051;-73
2021/09/28 08:03:25;;;;;;;3.97;1.10;;;;;;;14.78;83.62;96987.03;5085950;28;20070;-74
2021/09/28 08:05:52;;;;;;;3.80;1.10;;;;;;;14.87;83.59;96987.78;5086161;28;20098;-73
2021/09/28 08:08:18;;;;;;;2.78;1.10;;;;;;;14.84;82.43;96988.44;5085775;28;20052;-73
2021/09/28 08:10:45;;;;;;;1.95;1.20;;;;;;;14.83;82.03;96989.59;5087046;28;20511;-73
2021/09/28 08:13:13;;;;;;;3.22;1.10;;;;;;;14.73;81.48;96991.91;5085960;28;20055;-73
2021/09/28 08:15:40;;;;;;;1.75;0.90;;;;;;;14.75;82.48;96981.41;5087584;28;20056;-73
2021/09/28 08:18:06;;;;;;;4.35;1.10;;;;;;;14.75;82.13;96984.13;5085805;28;20051;-73
2021/09/28 08:20:33;;;;;;;1.25;1.00;;;;;;;14.84;81.88;96987.66;5105100;28;20070;-73
2021/09/28 08:23:00;;;;;;;3.88;1.10;;;;;;;14.84;81.17;96988.44;5106579;28;20051;-73
2021/09/28 08:25:35;;;;;;;1.88;1.20;;;;;;;14.74;81.50;96988.03;5106812;28;20153;-72
2021/09/28 08:30:47;;;;;;;4.53;1.30;;;;;;;14.89;82.26;96990.22;5107065;28;20421;-73
2021/09/28 08:33:14;;;;;;;2.78;1.65;;;;;;;14.93;81.71;96991.16;5106183;28;20052;-73
2021/09/28 08:35:41;;;;;;;4.25;1.67;;;;;;;15.05;81.74;96987.69;5105906;28;20510;-72
2021/09/28 08:38:07;;;;;;;2.40;1.67;;;;;;;15.12;80.59;96996.19;5106631;28;20055;-72
2021/09/28 08:40:34;;;;;;;2.85;1.75;;;;;;;15.02;80.71;96994.63;5106159;28;20048;-73
2021/09/28 08:43:00;;;;;;;4.43;2.17;;;;;;;15.00;80.78;96980.47;5107123;28;20063;-72
2021/09/28 08:45:27;;;;;;;3.42;1.80;;;;;;;14.94;80.46;96986.47;5109571;28;20051;-73
2021/09/28 08:47:55;;;;;;;4.57;2.15;;;;;;;14.96;81.46;96990.47;5121842;27;20642;-73
2021/09/28 08:50:23;;;;;;;6.47;2.00;;;;;;;14.94;81.06;96981.00;5111803;27;20406;-72
2021/09/28 08:52:52;;;;;;;3.88;2.10;;;;;;;14.87;80.90;96987.78;5110100;28;20059;-73
2021/09/28 08:55:19;;;;;;;3.55;2.22;;;;;;;14.95;80.65;96990.81;5109878;28;20051;-73
2021/09/28 08:57:46;;;;;;;5.78;2.42;;;;;;;14.91;80.50;96990.66;5109887;28;20040;-72
2021/09/28 09:00:24;;;;;;;3.65;2.53;;;;;;;14.99;81.33;97000.00;5109467;28;20047;-73
2021/09/28 09:02:51;;;;;;;3.55;2.20;;;;;;;14.99;80.19;96994.53;5108735;28;20058;-73
2021/09/28 09:05:19;;;;;;;4.53;2.33;;;;;;;15.01;80.53;96992.25;5109585;28;20055;-73
2021/09/28 09:07:58;;;;;;;3.40;2.40;;;;;;;15.15;80.61;96998.28;5108869;28;20050;-73
2021/09/28 09:10:28;;;;;;;4.90;2.83;;;;;;;15.21;80.30;97007.13;5108734;28;20096;-73
2021/09/28 09:12:55;;;;;;;3.90;3.00;;;;;;;15.15;80.20;97001.03;5109017;28;20052;-73
2021/09/28 09:15:24;;;;;;;4.70;2.80;;;;;;;15.15;80.20;96998.28;5108499;28;20060;-73
2021/09/28 09:17:52;;;;;;;3.83;2.90;;;;;;;15.17;79.64;96993.28;5109539;28;20055;-73
2021/09/28 09:20:33;;;;;;;4.60;2.80;;;;;;;15.13;80.44;96992.31;5108175;28;20043;-73
2021/09/28 09:23:28;;;;;;;4.32;3.25;;;;;;;15.20;79.49;96989.88;5109452;28;20050;-73
2021/09/28 09:26:13;;;;;;;5.00;2.95;;;;;;;15.23;78.13;96980.97;5060814;28;20047;-73
2021/09/28 09:28:42;;;;;;;4.43;2.92;;;;;;;15.17;78.15;96989.72;5108559;28;20047;-73
2021/09/28 09:31:24;;;;;;;7.95;3.42;;;;;;;15.12;78.00;96987.97;5108549;28;20043;-72
2021/09/28 09:33:54;;;;;;;5.45;3.28;;;;;;;15.28;78.28;96991.75;5108808;28;20690;-73
2021/09/28 09:36:23;;;;;;;5.85;3.80;;;;;;;15.31;77.64;96990.28;5109543;28;20406;-73
2021/09/28 09:38:53;;;;;;;4.90;3.20;;;;;;;15.27;77.50;96981.13;5109289;28;20043;-75
2021/09/28 09:41:22;;;;;;;4.43;2.90;;;;;;;15.22;76.27;96984.03;5108993;28;20055;-72
2021/09/28 09:43:49;;;;;;;4.70;3.22;;;;;;;15.30;77.11;96978.50;5109359;28;20051;-75
2021/09/28 09:46:19;;;;;;;5.78;3.35;;;;;;;15.39;76.68;96972.94;5108471;28;20830;-73
2021/09/28 09:48:47;;;;;;;6.78;3.03;;;;;;;15.40;76.24;96971.84;5110045;28;20047;-72
2021/09/28 09:51:15;;;;;;;3.45;2.80;;;;;;;15.49;74.21;96974.50;5108156;28;20039;-72
2021/09/28 09:53:59;;;;;;;12.05;2.80;;;;;;;15.44;74.37;96972.75;5110230;28;20050;-72
2021/09/28 09:56:51;;;;;;;4.50;2.75;;;;;;;15.50;74.75;96970.59;5107625;28;20047;-74
2021/09/28 09:59:20;;;;;;;5.63;3.15;;;;;;;15.62;74.74;96973.44;5108487;28;20142;-74
2021/09/28 10:01:47;;;;;;;5.13;3.50;;;;;;;15.61;73.48;96971.84;5108920;28;20557;-74
2021/09/28 10:04:15;;;;;;;4.75;3.53;;;;;;;15.59;74.03;96972.16;5108351;28;20047;-74
2021/09/28 10:06:41;;;;;;;6.53;3.80;;;;;;;15.63;74.41;96969.56;5109158;28;20047;-74
2021/09/28 10:09:14;;;;;;;5.82;3.58;;;;;;;15.76;73.96;96963.00;5107641;28;20047;-74
2021/09/28 10:11:41;;;;;;;6.15;3.80;;;;;;;15.85;74.25;96966.47;5109309;28;20101;-73
2021/09/28 10:14:08;;;;;;;5.85;3.60;;;;;;;15.97;73.88;96962.16;5107527;28;20674;-72
2021/09/28 10:16:39;;;;;;;6.25;3.80;;;;;;;16.06;73.28;96960.13;5109190;28;20059;-72
2021/09/28 10:19:40;;;;;;;6.05;3.70;;;;;;;16.14;71.91;96962.00;5107838;28;20047;-73
2021/09/28 10:22:07;;;;;;;5.95;3.80;;;;;;;16.15;71.71;96958.13;5107631;28;20060;-72
2021/09/28 10:24:35;;;;;;;5.15;3.60;;;;;;;16.15;71.42;96958.13;5109074;28;20117;-72
2021/09/28 10:27:29;;;;;;;6.50;3.83;;;;;;;16.16;70.93;96955.00;5107554;28;20545;-70
2021/09/28 10:29:56;;;;;;;6.82;4.07;;;;;;;16.21;71.31;96959.50;5108552;28;20509;-73
2021/09/28 10:32:45;;;;;;;7.00;4.05;;;;;;;16.22;70.27;96944.59;5107547;28;20060;-73
2021/09/28 10:35:17;;;;;;;7.18;4.20;;;;;;;16.33;71.64;96937.53;5107574;28;20134;-72
2021/09/28 10:37:55;;;;;;;6.70;4.10;;;;;;;16.59;71.15;96944.66;5108580;28;20051;-73
2021/09/28 10:40:51;;;;;;;7.82;3.35;;;;;;;16.81;70.13;96943.44;5107309;28;20051;-73
2021/09/28 10:43:31;;;;;;;5.47;3.58;;;;;;;16.87;67.67;96940.13;5107847;28;20054;-73
2021/09/28 10:46:00;;;;;;;6.63;3.42;;;;;;;16.86;67.15;96930.28;5107717;28;20049;-74
2021/09/28 10:48:38;;;;;;;5.63;3.33;;;;;;;16.97;68.06;96929.81;5107788;28;20127;-73
2021/09/28 10:51:08;;;;;;;6.75;3.35;;;;;;;17.01;67.33;96925.22;5087633;28;20502;-73
2021/09/28 10:53:36;;;;;;;7.63;3.35;;;;;;;17.06;67.32;96919.47;5087165;28;20531;-73
2021/09/28 10:56:06;;;;;;;7.10;3.17;;;;;;;17.10;67.13;96920.38;5087439;28;20044;-72
2021/09/28 10:58:51;;;;;;;4.35;3.15;;;;;;;17.16;68.48;96919.00;5086979;28;20047;-73
2021/09/28 11:01:19;;;;;;;6.20;3.35;;;;;;;17.29;67.23;96917.84;5087372;28;20052;-73
2021/09/28 11:04:11;;;;;;;6.35;3.63;;;;;;;17.35;66.82;96915.66;5087729;28;20415;-73
2021/09/28 11:07:08;;;;;;;6.88;3.75;;;;;;;17.30;66.96;96924.94;5086477;28;20036;-72
2021/09/28 11:09:49;;;;;;;5.65;3.55;;;;;;;17.36;67.84;96918.03;5087700;28;20048;-75
2021/09/28 11:12:19;;;;;;;5.55;3.20;;;;;;;17.38;66.62;96915.75;5086601;28;20059;-72
2021/09/28 11:14:46;;;;;;;5.68;3.00;;;;;;;17.40;67.61;96907.94;5087813;28;20044;-72
2021/09/28 11:17:15;;;;;;;5.13;3.05;;;;;;;17.38;65.46;96909.44;5086756;28;20074;-74
2021/09/28 11:19:42;;;;;;;4.88;3.13;;;;;;;17.37;66.56;96908.63;5099541;28;20055;-73
2021/09/28 11:22:16;;;;;;;4.53;2.58;;;;;;;17.40;66.28;96907.94;5107466;28;20109;-75
2021/09/28 11:24:43;;;;;;;4.20;2.90;;;;;;;17.47;67.17;96902.63;5107069;28;20055;-75
2021/09/28 11:27:11;;;;;;;4.95;2.85;;;;;;;17.51;66.43;96896.44;5107705;28;20058;-74
2021/09/28 11:29:40;;;;;;;4.93;3.03;;;;;;;17.57;67.30;96897.78;5107267;28;20052;-74